sensor_id;sensor_type;location;lat;lon;timestamp;P1;durP1;ratioP1;P2;durP2;ratioP2
27666;SDS011;15074;50.940;5.282;2023-02-22T00:03:20;306.92;;;33.85;;
27666;SDS011;15074;50.940;5.282;2023-02-22T00:05:49;232.65;;;32.47;;
27666;SDS011;15074;50.940;5.282;2023-02-22T00:08:41;285.80;;;34.10;;
27666;SDS011;15074;50.940;5.282;2023-02-22T00:11:07;262.17;;;30.60;;
27666;SDS011;15074;50.940;5.282;2023-02-22T00:13:34;445.25;;;36.45;;
27666;SDS011;15074;50.940;5.282;2023-02-22T00:16:00;238.07;;;31.73;;
27666;SDS011;15074;50.940;5.282;2023-02-22T00:18:27;153.95;;;29.85;;
27666;SDS011;15074;50.940;5.282;2023-02-22T00:20:56;250.40;;;31.08;;
27666;SDS011;15074;50.940;5.282;2023-02-22T00:23:24;298.98;;;33.88;;
27666;SDS011;15074;50.940;5.282;2023-02-22T00:25:52;295.98;;;36.63;;
27666;SDS011;15074;50.940;5.282;2023-02-22T00:28:18;257.50;;;30.83;;
27666;SDS011;15074;50.940;5.282;2023-02-22T00:30:44;309.88;;;32.75;;
27666;SDS011;15074;50.940;5.282;2023-02-22T00:33:12;324.45;;;36.97;;
27666;SDS011;15074;50.940;5.282;2023-02-22T00:35:39;449.23;;;38.88;;
27666;SDS011;15074;50.940;5.282;2023-02-22T00:38:05;318.20;;;37.15;;
27666;SDS011;15074;50.940;5.282;2023-02-22T00:40:32;296.45;;;36.22;;
27666;SDS011;15074;50.940;5.282;2023-02-22T00:42:59;622.60;;;49.03;;
27666;SDS011;15074;50.940;5.282;2023-02-22T00:45:27;328.23;;;37.03;;
27666;SDS011;15074;50.940;5.282;2023-02-22T00:47:54;518.28;;;49.03;;
27666;SDS011;15074;50.940;5.282;2023-02-22T00:50:21;226.98;;;30.85;;
27666;SDS011;15074;50.940;5.282;2023-02-22T00:52:49;198.98;;;25.88;;
27666;SDS011;15074;50.940;5.282;2023-02-22T00:55:17;481.95;;;39.33;;
27666;SDS011;15074;50.940;5.282;2023-02-22T00:57:53;663.40;;;52.23;;
27666;SDS011;15074;50.940;5.282;2023-02-22T01:00:20;354.73;;;31.52;;
27666;SDS011;15074;50.940;5.282;2023-02-22T01:02:49;519.03;;;42.58;;
27666;SDS011;15074;50.940;5.282;2023-02-22T01:05:17;674.33;;;45.67;;
27666;SDS011;15074;50.940;5.282;2023-02-22T01:07:45;448.38;;;39.92;;
27666;SDS011;15074;50.940;5.282;2023-02-22T01:10:11;255.98;;;29.58;;
27666;SDS011;15074;50.940;5.282;2023-02-22T01:12:38;634.33;;;49.90;;
27666;SDS011;15074;50.940;5.282;2023-02-22T01:15:05;376.88;;;33.83;;
27666;SDS011;15074;50.940;5.282;2023-02-22T01:17:34;530.72;;;41.17;;
27666;SDS011;15074;50.940;5.282;2023-02-22T01:20:01;264.48;;;28.50;;
27666;SDS011;15074;50.940;5.282;2023-02-22T01:22:34;278.83;;;29.23;;
27666;SDS011;15074;50.940;5.282;2023-02-22T01:24:59;222.15;;;28.42;;
27666;SDS011;15074;50.940;5.282;2023-02-22T01:27:25;262.27;;;31.70;;
27666;SDS011;15074;50.940;5.282;2023-02-22T01:29:52;365.38;;;33.13;;
27666;SDS011;15074;50.940;5.282;2023-02-22T01:32:17;469.42;;;39.17;;
27666;SDS011;15074;50.940;5.282;2023-02-22T01:34:43;468.02;;;37.60;;
27666;SDS011;15074;50.940;5.282;2023-02-22T01:37:08;502.52;;;40.08;;
27666;SDS011;15074;50.940;5.282;2023-02-22T01:39:34;452.83;;;34.83;;
27666;SDS011;15074;50.940;5.282;2023-02-22T01:42:00;320.20;;;30.50;;
27666;SDS011;15074;50.940;5.282;2023-02-22T01:46:55;584.47;;;43.97;;
27666;SDS011;15074;50.940;5.282;2023-02-22T01:49:22;304.63;;;31.55;;
27666;SDS011;15074;50.940;5.282;2023-02-22T01:51:52;130.38;;;23.65;;
27666;SDS011;15074;50.940;5.282;2023-02-22T01:54:25;467.00;;;39.17;;
27666;SDS011;15074;50.940;5.282;2023-02-22T01:57:03;296.75;;;31.17;;
27666;SDS011;15074;50.940;5.282;2023-02-22T01:59:45;451.88;;;35.58;;
27666;SDS011;15074;50.940;5.282;2023-02-22T02:02:14;493.98;;;39.75;;
27666;SDS011;15074;50.940;5.282;2023-02-22T02:04:42;288.10;;;33.25;;
27666;SDS011;15074;50.940;5.282;2023-02-22T02:07:10;366.48;;;33.08;;
27666;SDS011;15074;50.940;5.282;2023-02-22T02:09:51;248.18;;;29.20;;
27666;SDS011;15074;50.940;5.282;2023-02-22T02:12:22;237.77;;;26.73;;
27666;SDS011;15074;50.940;5.282;2023-02-22T02:14:50;119.17;;;23.97;;
27666;SDS011;15074;50.940;5.282;2023-02-22T02:17:16;250.55;;;28.27;;
27666;SDS011;15074;50.940;5.282;2023-02-22T02:20:07;386.50;;;30.52;;
27666;SDS011;15074;50.940;5.282;2023-02-22T02:22:52;268.38;;;25.02;;
27666;SDS011;15074;50.940;5.282;2023-02-22T02:38:45;227.30;;;24.92;;
27666;SDS011;15074;50.940;5.282;2023-02-22T02:41:33;100.65;;;19.83;;
27666;SDS011;15074;50.940;5.282;2023-02-22T02:49:30;136.65;;;23.83;;
27666;SDS011;15074;50.940;5.282;2023-02-22T02:52:36;138.23;;;25.20;;
27666;SDS011;15074;50.940;5.282;2023-02-22T02:55:04;115.50;;;21.98;;
27666;SDS011;15074;50.940;5.282;2023-02-22T02:57:32;96.20;;;20.67;;
27666;SDS011;15074;50.940;5.282;2023-02-22T02:59:57;127.05;;;21.23;;
27666;SDS011;15074;50.940;5.282;2023-02-22T03:13:41;95.70;;;19.85;;
27666;SDS011;15074;50.940;5.282;2023-02-22T03:33:12;74.47;;;19.23;;
27666;SDS011;15074;50.940;5.282;2023-02-22T03:35:46;116.88;;;22.00;;
27666;SDS011;15074;50.940;5.282;2023-02-22T03:38:20;175.70;;;23.90;;
27666;SDS011;15074;50.940;5.282;2023-02-22T03:40:50;118.85;;;22.80;;
27666;SDS011;15074;50.940;5.282;2023-02-22T03:43:23;202.25;;;23.70;;
27666;SDS011;15074;50.940;5.282;2023-02-22T03:45:53;159.00;;;22.65;;
27666;SDS011;15074;50.940;5.282;2023-02-22T03:48:36;125.10;;;21.80;;
27666;SDS011;15074;50.940;5.282;2023-02-22T03:51:11;110.95;;;20.55;;
27666;SDS011;15074;50.940;5.282;2023-02-22T03:53:39;143.25;;;21.30;;
27666;SDS011;15074;50.940;5.282;2023-02-22T03:56:06;80.88;;;19.33;;
27666;SDS011;15074;50.940;5.282;2023-02-22T03:58:35;108.57;;;20.70;;
27666;SDS011;15074;50.940;5.282;2023-02-22T04:03:28;91.75;;;19.52;;
27666;SDS011;15074;50.940;5.282;2023-02-22T04:05:54;78.13;;;20.13;;
27666;SDS011;15074;50.940;5.282;2023-02-22T04:08:19;71.85;;;20.42;;
27666;SDS011;15074;50.940;5.282;2023-02-22T04:10:45;70.45;;;21.33;;
27666;SDS011;15074;50.940;5.282;2023-02-22T04:13:11;75.57;;;20.65;;
27666;SDS011;15074;50.940;5.282;2023-02-22T04:15:38;71.05;;;20.90;;
27666;SDS011;15074;50.940;5.282;2023-02-22T04:18:04;80.28;;;22.45;;
27666;SDS011;15074;50.940;5.282;2023-02-22T04:20:29;58.70;;;21.05;;
27666;SDS011;15074;50.940;5.282;2023-02-22T04:22:57;54.42;;;20.80;;
27666;SDS011;15074;50.940;5.282;2023-02-22T04:25:22;52.70;;;21.63;;
27666;SDS011;15074;50.940;5.282;2023-02-22T04:27:48;46.25;;;18.92;;
27666;SDS011;15074;50.940;5.282;2023-02-22T04:30:18;46.40;;;19.30;;
27666;SDS011;15074;50.940;5.282;2023-02-22T04:32:44;57.15;;;19.45;;
27666;SDS011;15074;50.940;5.282;2023-02-22T04:35:10;88.00;;;20.45;;
27666;SDS011;15074;50.940;5.282;2023-02-22T04:37:36;87.85;;;20.80;;
27666;SDS011;15074;50.940;5.282;2023-02-22T04:40:02;77.70;;;20.70;;
27666;SDS011;15074;50.940;5.282;2023-02-22T04:42:33;92.60;;;20.42;;
27666;SDS011;15074;50.940;5.282;2023-02-22T04:44:59;39.27;;;18.60;;
27666;SDS011;15074;50.940;5.282;2023-02-22T04:47:25;55.60;;;19.60;;
27666;SDS011;15074;50.940;5.282;2023-02-22T04:49:51;54.70;;;19.75;;
27666;SDS011;15074;50.940;5.282;2023-02-22T04:52:16;60.28;;;21.83;;
27666;SDS011;15074;50.940;5.282;2023-02-22T04:54:42;52.90;;;18.65;;
27666;SDS011;15074;50.940;5.282;2023-02-22T04:57:08;35.35;;;18.42;;
27666;SDS011;15074;50.940;5.282;2023-02-22T04:59:34;40.17;;;19.98;;
27666;SDS011;15074;50.940;5.282;2023-02-22T05:01:59;37.35;;;19.02;;
27666;SDS011;15074;50.940;5.282;2023-02-22T05:04:25;38.85;;;17.08;;
27666;SDS011;15074;50.940;5.282;2023-02-22T05:06:51;34.88;;;18.63;;
27666;SDS011;15074;50.940;5.282;2023-02-22T05:09:17;35.83;;;18.70;;
27666;SDS011;15074;50.940;5.282;2023-02-22T05:11:43;38.72;;;19.13;;
27666;SDS011;15074;50.940;5.282;2023-02-22T05:14:09;33.78;;;18.75;;
27666;SDS011;15074;50.940;5.282;2023-02-22T05:16:34;39.50;;;19.92;;
27666;SDS011;15074;50.940;5.282;2023-02-22T05:19:00;38.95;;;19.50;;
27666;SDS011;15074;50.940;5.282;2023-02-22T05:21:26;37.05;;;19.38;;
27666;SDS011;15074;50.940;5.282;2023-02-22T05:23:52;39.05;;;19.70;;
27666;SDS011;15074;50.940;5.282;2023-02-22T05:26:17;43.63;;;20.48;;
27666;SDS011;15074;50.940;5.282;2023-02-22T05:28:43;42.53;;;21.05;;
27666;SDS011;15074;50.940;5.282;2023-02-22T05:31:09;38.97;;;20.38;;
27666;SDS011;15074;50.940;5.282;2023-02-22T05:33:34;37.05;;;18.92;;
27666;SDS011;15074;50.940;5.282;2023-02-22T05:36:00;37.33;;;20.08;;
27666;SDS011;15074;50.940;5.282;2023-02-22T05:38:26;39.75;;;19.38;;
27666;SDS011;15074;50.940;5.282;2023-02-22T05:40:51;38.78;;;19.60;;
27666;SDS011;15074;50.940;5.282;2023-02-22T05:43:17;41.17;;;19.85;;
27666;SDS011;15074;50.940;5.282;2023-02-22T05:45:44;31.05;;;18.90;;
27666;SDS011;15074;50.940;5.282;2023-02-22T05:48:10;34.95;;;18.75;;
27666;SDS011;15074;50.940;5.282;2023-02-22T05:50:36;29.90;;;17.08;;
27666;SDS011;15074;50.940;5.282;2023-02-22T05:53:02;32.10;;;19.65;;
27666;SDS011;15074;50.940;5.282;2023-02-22T05:55:29;35.78;;;19.45;;
27666;SDS011;15074;50.940;5.282;2023-02-22T05:57:55;31.30;;;19.35;;
27666;SDS011;15074;50.940;5.282;2023-02-22T06:00:25;33.00;;;18.77;;
27666;SDS011;15074;50.940;5.282;2023-02-22T06:03:00;34.50;;;19.58;;
27666;SDS011;15074;50.940;5.282;2023-02-22T06:05:28;29.80;;;18.02;;
27666;SDS011;15074;50.940;5.282;2023-02-22T06:07:55;34.50;;;19.85;;
27666;SDS011;15074;50.940;5.282;2023-02-22T06:10:22;32.83;;;18.70;;
27666;SDS011;15074;50.940;5.282;2023-02-22T06:12:48;33.17;;;19.42;;
27666;SDS011;15074;50.940;5.282;2023-02-22T06:32:23;35.53;;;19.88;;
27666;SDS011;15074;50.940;5.282;2023-02-22T06:34:50;34.35;;;18.80;;
27666;SDS011;15074;50.940;5.282;2023-02-22T06:37:16;33.33;;;18.73;;
27666;SDS011;15074;50.940;5.282;2023-02-22T06:39:42;28.35;;;18.08;;
27666;SDS011;15074;50.940;5.282;2023-02-22T06:45:51;31.73;;;17.92;;
27666;SDS011;15074;50.940;5.282;2023-02-22T06:53:40;27.05;;;17.95;;
27666;SDS011;15074;50.940;5.282;2023-02-22T06:56:05;33.70;;;18.13;;
27666;SDS011;15074;50.940;5.282;2023-02-22T06:58:44;33.50;;;18.02;;
27666;SDS011;15074;50.940;5.282;2023-02-22T07:01:10;26.95;;;17.13;;
27666;SDS011;15074;50.940;5.282;2023-02-22T07:03:36;35.25;;;18.65;;
27666;SDS011;15074;50.940;5.282;2023-02-22T07:06:02;30.55;;;18.73;;
27666;SDS011;15074;50.940;5.282;2023-02-22T07:08:31;30.92;;;18.30;;
27666;SDS011;15074;50.940;5.282;2023-02-22T07:10:57;36.58;;;18.40;;
27666;SDS011;15074;50.940;5.282;2023-02-22T07:13:23;24.67;;;18.95;;
27666;SDS011;15074;50.940;5.282;2023-02-22T07:15:50;26.38;;;20.00;;
27666;SDS011;15074;50.940;5.282;2023-02-22T07:18:15;24.63;;;18.25;;
27666;SDS011;15074;50.940;5.282;2023-02-22T07:20:41;34.97;;;20.23;;
27666;SDS011;15074;50.940;5.282;2023-02-22T07:23:25;29.48;;;19.50;;
27666;SDS011;15074;50.940;5.282;2023-02-22T07:25:51;30.77;;;19.83;;
27666;SDS011;15074;50.940;5.282;2023-02-22T07:28:17;30.45;;;19.35;;
27666;SDS011;15074;50.940;5.282;2023-02-22T07:30:42;22.35;;;17.92;;
27666;SDS011;15074;50.940;5.282;2023-02-22T07:33:09;35.30;;;18.70;;
27666;SDS011;15074;50.940;5.282;2023-02-22T07:38:03;26.13;;;17.55;;
27666;SDS011;15074;50.940;5.282;2023-02-22T07:40:32;31.67;;;19.92;;
27666;SDS011;15074;50.940;5.282;2023-02-22T07:43:12;38.95;;;21.40;;
27666;SDS011;15074;50.940;5.282;2023-02-22T07:45:39;44.28;;;23.35;;
27666;SDS011;15074;50.940;5.282;2023-02-22T07:48:05;32.85;;;20.75;;
27666;SDS011;15074;50.940;5.282;2023-02-22T07:50:32;28.15;;;17.20;;
27666;SDS011;15074;50.940;5.282;2023-02-22T07:52:59;24.52;;;17.48;;
27666;SDS011;15074;50.940;5.282;2023-02-22T07:55:28;28.75;;;17.08;;
27666;SDS011;15074;50.940;5.282;2023-02-22T07:57:56;22.95;;;16.52;;
27666;SDS011;15074;50.940;5.282;2023-02-22T08:00:36;20.65;;;16.65;;
27666;SDS011;15074;50.940;5.282;2023-02-22T08:03:04;21.85;;;18.70;;
27666;SDS011;15074;50.940;5.282;2023-02-22T08:05:32;24.73;;;18.77;;
27666;SDS011;15074;50.940;5.282;2023-02-22T08:07:59;26.65;;;18.77;;
27666;SDS011;15074;50.940;5.282;2023-02-22T08:10:26;24.15;;;15.43;;
27666;SDS011;15074;50.940;5.282;2023-02-22T08:12:52;21.73;;;14.80;;
27666;SDS011;15074;50.940;5.282;2023-02-22T08:15:20;21.42;;;14.13;;
27666;SDS011;15074;50.940;5.282;2023-02-22T08:17:48;18.83;;;13.07;;
27666;SDS011;15074;50.940;5.282;2023-02-22T08:20:15;20.50;;;12.93;;
27666;SDS011;15074;50.940;5.282;2023-02-22T08:22:44;15.18;;;13.68;;
27666;SDS011;15074;50.940;5.282;2023-02-22T08:25:11;21.25;;;15.48;;
27666;SDS011;15074;50.940;5.282;2023-02-22T08:27:39;21.58;;;15.00;;
27666;SDS011;15074;50.940;5.282;2023-02-22T08:30:05;22.35;;;14.60;;
27666;SDS011;15074;50.940;5.282;2023-02-22T08:32:32;18.15;;;15.05;;
27666;SDS011;15074;50.940;5.282;2023-02-22T08:34:59;21.55;;;16.33;;
27666;SDS011;15074;50.940;5.282;2023-02-22T08:37:26;22.50;;;16.25;;
27666;SDS011;15074;50.940;5.282;2023-02-22T08:39:52;18.27;;;14.65;;
27666;SDS011;15074;50.940;5.282;2023-02-22T08:44:45;14.52;;;11.73;;
27666;SDS011;15074;50.940;5.282;2023-02-22T08:47:11;21.08;;;12.93;;
27666;SDS011;15074;50.940;5.282;2023-02-22T08:49:36;11.73;;;10.52;;
27666;SDS011;15074;50.940;5.282;2023-02-22T08:52:02;13.82;;;11.13;;
27666;SDS011;15074;50.940;5.282;2023-02-22T08:54:28;13.18;;;11.85;;
27666;SDS011;15074;50.940;5.282;2023-02-22T08:56:53;15.63;;;11.80;;
27666;SDS011;15074;50.940;5.282;2023-02-22T08:59:19;15.00;;;11.05;;
27666;SDS011;15074;50.940;5.282;2023-02-22T09:01:45;14.10;;;11.65;;
27666;SDS011;15074;50.940;5.282;2023-02-22T09:04:10;19.48;;;11.05;;
27666;SDS011;15074;50.940;5.282;2023-02-22T09:06:38;13.20;;;11.80;;
27666;SDS011;15074;50.940;5.282;2023-02-22T09:09:05;15.52;;;10.90;;
27666;SDS011;15074;50.940;5.282;2023-02-22T09:11:31;20.50;;;11.23;;
27666;SDS011;15074;50.940;5.282;2023-02-22T09:13:57;12.73;;;11.48;;
27666;SDS011;15074;50.940;5.282;2023-02-22T09:16:22;14.48;;;11.38;;
27666;SDS011;15074;50.940;5.282;2023-02-22T09:18:48;12.88;;;9.68;;
27666;SDS011;15074;50.940;5.282;2023-02-22T09:21:14;10.20;;;8.85;;
27666;SDS011;15074;50.940;5.282;2023-02-22T09:23:39;13.60;;;9.80;;
27666;SDS011;15074;50.940;5.282;2023-02-22T09:26:07;12.18;;;10.02;;
27666;SDS011;15074;50.940;5.282;2023-02-22T09:28:34;14.80;;;9.70;;
27666;SDS011;15074;50.940;5.282;2023-02-22T09:31:00;10.35;;;9.15;;
27666;SDS011;15074;50.940;5.282;2023-02-22T09:33:25;9.55;;;8.50;;
27666;SDS011;15074;50.940;5.282;2023-02-22T09:35:51;13.05;;;9.40;;
27666;SDS011;15074;50.940;5.282;2023-02-22T09:38:21;11.13;;;7.80;;
27666;SDS011;15074;50.940;5.282;2023-02-22T09:40:49;9.95;;;8.93;;
27666;SDS011;15074;50.940;5.282;2023-02-22T09:51:37;10.98;;;8.95;;
27666;SDS011;15074;50.940;5.282;2023-02-22T09:54:13;10.73;;;9.25;;
27666;SDS011;15074;50.940;5.282;2023-02-22T09:56:59;9.60;;;8.57;;
27666;SDS011;15074;50.940;5.282;2023-02-22T09:59:30;12.98;;;10.18;;
27666;SDS011;15074;50.940;5.282;2023-02-22T10:02:25;9.73;;;8.65;;
27666;SDS011;15074;50.940;5.282;2023-02-22T10:05:02;10.07;;;9.07;;
27666;SDS011;15074;50.940;5.282;2023-02-22T10:07:58;9.43;;;8.52;;
27666;SDS011;15074;50.940;5.282;2023-02-22T10:23:26;10.07;;;9.00;;
27666;SDS011;15074;50.940;5.282;2023-02-22T10:26:13;11.18;;;9.43;;
27666;SDS011;15074;50.940;5.282;2023-02-22T10:29:26;11.45;;;10.23;;
27666;SDS011;15074;50.940;5.282;2023-02-22T10:31:33;12.77;;;10.02;;
27666;SDS011;15074;50.940;5.282;2023-02-22T10:34:08;10.32;;;9.25;;
27666;SDS011;15074;50.940;5.282;2023-02-22T10:36:44;10.18;;;9.18;;
27666;SDS011;15074;50.940;5.282;2023-02-22T10:41:47;10.02;;;9.10;;
27666;SDS011;15074;50.940;5.282;2023-02-22T10:44:17;10.40;;;8.60;;
27666;SDS011;15074;50.940;5.282;2023-02-22T10:46:42;10.30;;;9.15;;
27666;SDS011;15074;50.940;5.282;2023-02-22T10:49:09;9.45;;;8.57;;
27666;SDS011;15074;50.940;5.282;2023-02-22T10:51:41;9.88;;;8.88;;
27666;SDS011;15074;50.940;5.282;2023-02-22T10:54:49;10.23;;;9.35;;
27666;SDS011;15074;50.940;5.282;2023-02-22T10:56:57;10.65;;;9.65;;
27666;SDS011;15074;50.940;5.282;2023-02-22T10:59:34;10.45;;;8.98;;
27666;SDS011;15074;50.940;5.282;2023-02-22T11:02:35;12.07;;;10.55;;
27666;SDS011;15074;50.940;5.282;2023-02-22T11:04:56;13.52;;;12.18;;
27666;SDS011;15074;50.940;5.282;2023-02-22T11:07:24;13.35;;;10.32;;
27666;SDS011;15074;50.940;5.282;2023-02-22T11:10:10;11.68;;;10.60;;
27666;SDS011;15074;50.940;5.282;2023-02-22T11:12:37;11.45;;;10.35;;
27666;SDS011;15074;50.940;5.282;2023-02-22T11:17:51;11.05;;;10.05;;
27666;SDS011;15074;50.940;5.282;2023-02-22T11:22:49;12.00;;;10.75;;
27666;SDS011;15074;50.940;5.282;2023-02-22T11:25:35;10.38;;;9.45;;
27666;SDS011;15074;50.940;5.282;2023-02-22T11:28:06;11.45;;;10.25;;
27666;SDS011;15074;50.940;5.282;2023-02-22T11:30:40;22.20;;;10.73;;
27666;SDS011;15074;50.940;5.282;2023-02-22T11:35:57;11.00;;;10.00;;
27666;SDS011;15074;50.940;5.282;2023-02-22T11:38:27;11.40;;;10.38;;
27666;SDS011;15074;50.940;5.282;2023-02-22T11:41:42;11.45;;;10.45;;
27666;SDS011;15074;50.940;5.282;2023-02-22T11:43:47;14.75;;;10.30;;
27666;SDS011;15074;50.940;5.282;2023-02-22T11:46:18;12.23;;;11.13;;
27666;SDS011;15074;50.940;5.282;2023-02-22T11:49:05;12.95;;;11.55;;
27666;SDS011;15074;50.940;5.282;2023-02-22T11:54:19;15.18;;;12.73;;
27666;SDS011;15074;50.940;5.282;2023-02-22T12:02:27;15.02;;;13.73;;
27666;SDS011;15074;50.940;5.282;2023-02-22T12:08:04;15.00;;;13.60;;
27666;SDS011;15074;50.940;5.282;2023-02-22T12:10:48;19.48;;;15.02;;
27666;SDS011;15074;50.940;5.282;2023-02-22T12:13:33;16.05;;;14.55;;
27666;SDS011;15074;50.940;5.282;2023-02-22T12:21:31;15.30;;;13.70;;
27666;SDS011;15074;50.940;5.282;2023-02-22T12:24:04;15.05;;;13.65;;
27666;SDS011;15074;50.940;5.282;2023-02-22T12:29:52;18.40;;;15.25;;
27666;SDS011;15074;50.940;5.282;2023-02-22T12:35:19;20.40;;;16.58;;
27666;SDS011;15074;50.940;5.282;2023-02-22T12:38:05;21.67;;;16.30;;
27666;SDS011;15074;50.940;5.282;2023-02-22T12:46:29;19.27;;;17.30;;
27666;SDS011;15074;50.940;5.282;2023-02-22T12:59:46;23.48;;;17.98;;
27666;SDS011;15074;50.940;5.282;2023-02-22T13:05:03;20.20;;;17.23;;
27666;SDS011;15074;50.940;5.282;2023-02-22T13:13:15;20.73;;;18.63;;
27666;SDS011;15074;50.940;5.282;2023-02-22T13:18:49;19.90;;;17.77;;
27666;SDS011;15074;50.940;5.282;2023-02-22T13:26:56;22.83;;;19.08;;
27666;SDS011;15074;50.940;5.282;2023-02-22T13:29:37;21.20;;;18.75;;
27666;SDS011;15074;50.940;5.282;2023-02-22T13:37:30;19.45;;;17.20;;
27666;SDS011;15074;50.940;5.282;2023-02-22T13:54:12;21.88;;;17.85;;
27666;SDS011;15074;50.940;5.282;2023-02-22T13:56:47;20.00;;;18.08;;
27666;SDS011;15074;50.940;5.282;2023-02-22T13:59:22;19.60;;;17.73;;
27666;SDS011;15074;50.940;5.282;2023-02-22T14:01:57;22.10;;;18.42;;
27666;SDS011;15074;50.940;5.282;2023-02-22T14:06:59;24.30;;;18.85;;
27666;SDS011;15074;50.940;5.282;2023-02-22T14:09:43;25.52;;;19.65;;
27666;SDS011;15074;50.940;5.282;2023-02-22T14:17:36;28.75;;;21.02;;
27666;SDS011;15074;50.940;5.282;2023-02-22T14:22:44;30.90;;;23.83;;
27666;SDS011;15074;50.940;5.282;2023-02-22T14:27:58;34.28;;;24.02;;
27666;SDS011;15074;50.940;5.282;2023-02-22T14:30:26;23.05;;;20.10;;
27666;SDS011;15074;50.940;5.282;2023-02-22T14:32:57;31.08;;;21.13;;
27666;SDS011;15074;50.940;5.282;2023-02-22T14:35:24;30.13;;;20.97;;
27666;SDS011;15074;50.940;5.282;2023-02-22T14:37:57;24.83;;;20.48;;
27666;SDS011;15074;50.940;5.282;2023-02-22T14:40:26;27.63;;;20.30;;
27666;SDS011;15074;50.940;5.282;2023-02-22T14:45:34;28.35;;;19.42;;
27666;SDS011;15074;50.940;5.282;2023-02-22T14:50:58;25.13;;;19.00;;
27666;SDS011;15074;50.940;5.282;2023-02-22T14:56:20;21.75;;;19.45;;
27666;SDS011;15074;50.940;5.282;2023-02-22T14:58:54;30.80;;;20.73;;
27666;SDS011;15074;50.940;5.282;2023-02-22T15:01:39;43.80;;;21.65;;
27666;SDS011;15074;50.940;5.282;2023-02-22T15:04:21;35.58;;;25.05;;
27666;SDS011;15074;50.940;5.282;2023-02-22T15:06:47;36.20;;;26.15;;
27666;SDS011;15074;50.940;5.282;2023-02-22T15:09:27;31.38;;;22.27;;
27666;SDS011;15074;50.940;5.282;2023-02-22T15:14:30;24.80;;;21.65;;
27666;SDS011;15074;50.940;5.282;2023-02-22T15:17:02;30.05;;;20.58;;
27666;SDS011;15074;50.940;5.282;2023-02-22T15:19:33;23.23;;;20.42;;
27666;SDS011;15074;50.940;5.282;2023-02-22T15:22:02;28.70;;;20.42;;
27666;SDS011;15074;50.940;5.282;2023-02-22T15:24:33;25.02;;;21.08;;
27666;SDS011;15074;50.940;5.282;2023-02-22T15:27:01;24.60;;;21.77;;
27666;SDS011;15074;50.940;5.282;2023-02-22T15:29:36;25.77;;;20.98;;
27666;SDS011;15074;50.940;5.282;2023-02-22T15:32:48;26.15;;;21.63;;
27666;SDS011;15074;50.940;5.282;2023-02-22T15:34:49;24.80;;;20.52;;
27666;SDS011;15074;50.940;5.282;2023-02-22T15:37:19;32.90;;;22.50;;
27666;SDS011;15074;50.940;5.282;2023-02-22T15:39:49;33.67;;;22.90;;
27666;SDS011;15074;50.940;5.282;2023-02-22T15:42:23;29.08;;;21.40;;
27666;SDS011;15074;50.940;5.282;2023-02-22T15:44:51;32.42;;;21.98;;
27666;SDS011;15074;50.940;5.282;2023-02-22T15:47:28;28.85;;;22.23;;
27666;SDS011;15074;50.940;5.282;2023-02-22T15:50:17;30.83;;;21.40;;
27666;SDS011;15074;50.940;5.282;2023-02-22T15:55:17;30.30;;;20.92;;
27666;SDS011;15074;50.940;5.282;2023-02-22T15:57:45;25.10;;;20.88;;
27666;SDS011;15074;50.940;5.282;2023-02-22T16:00:17;37.33;;;22.52;;
27666;SDS011;15074;50.940;5.282;2023-02-22T16:03:01;32.67;;;21.58;;
27666;SDS011;15074;50.940;5.282;2023-02-22T16:05:39;29.35;;;21.63;;
27666;SDS011;15074;50.940;5.282;2023-02-22T16:08:16;31.80;;;21.95;;
27666;SDS011;15074;50.940;5.282;2023-02-22T16:13:28;31.15;;;22.70;;
27666;SDS011;15074;50.940;5.282;2023-02-22T16:18:33;33.08;;;22.80;;
27666;SDS011;15074;50.940;5.282;2023-02-22T16:21:07;27.27;;;22.40;;
27666;SDS011;15074;50.940;5.282;2023-02-22T16:23:52;30.63;;;22.35;;
27666;SDS011;15074;50.940;5.282;2023-02-22T16:29:00;32.03;;;23.60;;
27666;SDS011;15074;50.940;5.282;2023-02-22T16:31:32;37.83;;;24.83;;
27666;SDS011;15074;50.940;5.282;2023-02-22T16:34:02;37.78;;;24.70;;
27666;SDS011;15074;50.940;5.282;2023-02-22T16:36:39;35.30;;;24.75;;
27666;SDS011;15074;50.940;5.282;2023-02-22T16:39:09;37.40;;;26.88;;
27666;SDS011;15074;50.940;5.282;2023-02-22T16:41:52;35.03;;;26.05;;
27666;SDS011;15074;50.940;5.282;2023-02-22T16:44:23;35.15;;;27.08;;
27666;SDS011;15074;50.940;5.282;2023-02-22T16:46:53;43.72;;;28.40;;
27666;SDS011;15074;50.940;5.282;2023-02-22T16:49:20;47.58;;;28.40;;
27666;SDS011;15074;50.940;5.282;2023-02-22T16:51:50;44.03;;;30.10;;
27666;SDS011;15074;50.940;5.282;2023-02-22T16:54:27;38.40;;;29.17;;
27666;SDS011;15074;50.940;5.282;2023-02-22T16:56:58;41.30;;;28.50;;
27666;SDS011;15074;50.940;5.282;2023-02-22T16:59:26;42.38;;;28.73;;
27666;SDS011;15074;50.940;5.282;2023-02-22T17:01:53;49.55;;;29.50;;
27666;SDS011;15074;50.940;5.282;2023-02-22T17:04:23;39.40;;;29.00;;
27666;SDS011;15074;50.940;5.282;2023-02-22T17:06:50;41.17;;;29.23;;
27666;SDS011;15074;50.940;5.282;2023-02-22T17:09:16;41.20;;;29.08;;
27666;SDS011;15074;50.940;5.282;2023-02-22T17:11:47;45.35;;;29.33;;
27666;SDS011;15074;50.940;5.282;2023-02-22T17:16:47;38.33;;;26.80;;
27666;SDS011;15074;50.940;5.282;2023-02-22T17:19:14;49.67;;;28.00;;
27666;SDS011;15074;50.940;5.282;2023-02-22T17:21:41;45.22;;;30.10;;
27666;SDS011;15074;50.940;5.282;2023-02-22T17:24:08;43.17;;;30.02;;
27666;SDS011;15074;50.940;5.282;2023-02-22T17:26:39;49.03;;;30.52;;
27666;SDS011;15074;50.940;5.282;2023-02-22T17:29:05;46.72;;;30.00;;
27666;SDS011;15074;50.940;5.282;2023-02-22T17:31:31;46.45;;;30.83;;
27666;SDS011;15074;50.940;5.282;2023-02-22T17:33:58;53.05;;;32.28;;
27666;SDS011;15074;50.940;5.282;2023-02-22T17:36:26;50.13;;;32.42;;
27666;SDS011;15074;50.940;5.282;2023-02-22T17:38:53;49.95;;;31.05;;
27666;SDS011;15074;50.940;5.282;2023-02-22T17:41:19;58.13;;;33.10;;
27666;SDS011;15074;50.940;5.282;2023-02-22T17:43:45;54.03;;;33.55;;
27666;SDS011;15074;50.940;5.282;2023-02-22T17:46:11;55.45;;;34.20;;
27666;SDS011;15074;50.940;5.282;2023-02-22T17:48:37;66.45;;;35.97;;
27666;SDS011;15074;50.940;5.282;2023-02-22T17:51:07;59.25;;;35.95;;
27666;SDS011;15074;50.940;5.282;2023-02-22T17:53:34;59.08;;;35.53;;
27666;SDS011;15074;50.940;5.282;2023-02-22T17:56:05;55.22;;;33.55;;
27666;SDS011;15074;50.940;5.282;2023-02-22T17:58:32;65.32;;;37.60;;
27666;SDS011;15074;50.940;5.282;2023-02-22T18:00:58;62.28;;;35.40;;
27666;SDS011;15074;50.940;5.282;2023-02-22T18:03:24;69.88;;;37.78;;
27666;SDS011;15074;50.940;5.282;2023-02-22T18:05:51;60.85;;;36.25;;
27666;SDS011;15074;50.940;5.282;2023-02-22T18:08:19;61.95;;;35.47;;
27666;SDS011;15074;50.940;5.282;2023-02-22T18:10:48;61.95;;;36.53;;
27666;SDS011;15074;50.940;5.282;2023-02-22T18:13:20;56.88;;;36.78;;
27666;SDS011;15074;50.940;5.282;2023-02-22T18:15:47;62.85;;;37.20;;
27666;SDS011;15074;50.940;5.282;2023-02-22T18:18:13;61.78;;;36.38;;
27666;SDS011;15074;50.940;5.282;2023-02-22T18:20:43;65.28;;;36.35;;
27666;SDS011;15074;50.940;5.282;2023-02-22T18:23:14;62.38;;;35.65;;
27666;SDS011;15074;50.940;5.282;2023-02-22T18:25:44;57.28;;;34.90;;
27666;SDS011;15074;50.940;5.282;2023-02-22T18:28:14;63.50;;;37.75;;